createdAt,value
2019-03-20T00:02:29.106Z,3.81
2019-03-20T00:05:33.352Z,3.89
2019-03-20T00:08:38.897Z,3.90
2019-03-20T00:11:43.257Z,3.97
2019-03-20T00:14:47.500Z,4.10
2019-03-20T00:17:51.929Z,4.10
2019-03-20T00:20:56.205Z,4.24
2019-03-20T00:24:00.477Z,4.18
2019-03-20T00:27:04.704Z,4.26
2019-03-20T00:30:10.332Z,4.39
2019-03-20T00:33:14.616Z,4.37
2019-03-20T00:36:18.893Z,4.44
2019-03-20T00:39:25.527Z,4.43
2019-03-20T00:42:29.774Z,4.54
2019-03-20T00:45:36.332Z,4.53
2019-03-20T00:48:40.571Z,4.60
2019-03-20T00:51:44.810Z,4.60
2019-03-20T00:54:49.059Z,4.50
2019-03-20T00:57:53.303Z,4.53
2019-03-20T01:00:57.581Z,4.47
2019-03-20T01:04:02.149Z,4.41
2019-03-20T01:07:06.511Z,4.42
2019-03-20T01:10:12.754Z,4.56
2019-03-20T01:13:17.004Z,4.60
2019-03-20T01:16:21.268Z,4.60
2019-03-20T01:19:25.547Z,4.65
2019-03-20T01:22:32.841Z,4.69
2019-03-20T01:25:37.114Z,4.65
2019-03-20T01:28:47.349Z,4.69
2019-03-20T01:31:51.637Z,4.80
2019-03-20T01:34:55.960Z,4.75
2019-03-20T01:38:00.197Z,4.76
2019-03-20T01:41:04.471Z,4.78
2019-03-20T01:44:08.713Z,4.61
2019-03-20T01:47:12.964Z,4.50
2019-03-20T01:50:17.279Z,4.39
2019-03-20T01:53:23.368Z,4.31
2019-03-20T01:56:27.621Z,4.27
2019-03-20T01:59:32.063Z,4.33
2019-03-20T02:02:36.366Z,4.16
2019-03-20T02:05:40.750Z,4.25
2019-03-20T02:08:48.224Z,4.27
2019-03-20T02:11:52.525Z,4.25
2019-03-20T02:14:56.820Z,4.30
2019-03-20T02:18:01.116Z,4.42
2019-03-20T02:21:05.414Z,4.49
2019-03-20T02:24:09.709Z,4.62
2019-03-20T02:27:14.040Z,4.72
2019-03-20T02:30:18.587Z,4.75
2019-03-20T02:33:22.986Z,4.76
2019-03-20T02:36:27.278Z,4.85
2019-03-20T02:39:31.561Z,4.81
2019-03-20T02:42:35.858Z,4.77
2019-03-20T02:45:40.144Z,4.62
2019-03-20T02:48:44.566Z,4.58
2019-03-20T02:51:50.343Z,4.54
2019-03-20T02:54:57.893Z,4.54
2019-03-20T02:58:05.291Z,4.42
2019-03-20T03:01:09.660Z,4.46
2019-03-20T03:04:16.664Z,4.42
2019-03-20T03:07:20.964Z,4.42
2019-03-20T03:10:25.271Z,4.48
2019-03-20T03:13:29.678Z,4.48
2019-03-20T03:16:35.068Z,4.51
2019-03-20T03:19:39.464Z,4.47
2019-03-20T03:22:43.891Z,4.45
2019-03-20T03:25:50.172Z,4.47
2019-03-20T03:28:56.944Z,4.50
2019-03-20T03:32:01.252Z,4.57
2019-03-20T03:35:05.699Z,4.63
2019-03-20T03:38:10.002Z,4.65
2019-03-20T03:41:14.265Z,4.74
2019-03-20T03:44:18.556Z,4.76
2019-03-20T03:47:22.845Z,4.67
2019-03-20T03:50:27.182Z,4.75
2019-03-20T03:53:33.626Z,4.77
2019-03-20T03:56:38.021Z,4.90
2019-03-20T03:59:44.200Z,4.98
2019-03-20T04:02:54.134Z,5.00
2019-03-20T04:05:58.431Z,5.08
2019-03-20T04:09:02.957Z,5.02
2019-03-20T04:12:07.392Z,5.04
2019-03-20T04:15:12.616Z,5.12
2019-03-20T04:18:16.952Z,5.21
2019-03-20T04:21:21.360Z,5.13
2019-03-20T04:24:25.652Z,5.25
2019-03-20T04:27:34.937Z,5.38
2019-03-20T04:30:39.274Z,5.35
2019-03-20T04:33:43.805Z,5.33
2019-03-20T04:36:50.611Z,5.48
2019-03-20T04:39:56.372Z,5.39
2019-03-20T04:43:00.655Z,5.43
2019-03-20T04:46:04.949Z,5.52
2019-03-20T04:49:09.234Z,5.61
2019-03-20T04:52:13.496Z,5.62
2019-03-20T04:55:17.780Z,5.53
2019-03-20T04:58:22.140Z,5.59
2019-03-20T05:01:26.860Z,5.57
2019-03-20T05:04:31.140Z,5.73
2019-03-20T05:07:35.439Z,5.62
2019-03-20T05:10:39.700Z,5.70
2019-03-20T05:13:44.069Z,5.74
2019-03-20T05:16:48.366Z,5.81
2019-03-20T05:19:52.666Z,5.76
2019-03-20T05:22:56.977Z,5.90
2019-03-20T05:26:01.262Z,6.03
2019-03-20T05:29:07.004Z,6.01
2019-03-20T05:32:11.448Z,6.00
2019-03-20T05:35:15.745Z,6.08
2019-03-20T05:38:20.024Z,6.06
2019-03-20T05:41:27.352Z,6.06
2019-03-20T05:44:31.619Z,6.11
2019-03-20T05:47:37.098Z,6.18
2019-03-20T05:50:46.461Z,6.17
2019-03-20T05:53:50.754Z,6.14
2019-03-20T05:56:57.804Z,6.18
2019-03-20T06:00:02.170Z,6.21
2019-03-20T06:03:06.476Z,6.25
2019-03-20T06:06:10.769Z,6.26
2019-03-20T06:09:15.047Z,6.27
2019-03-20T06:12:19.323Z,6.40
2019-03-20T06:15:24.691Z,6.43
2019-03-20T06:18:29.110Z,6.45
2019-03-20T06:21:33.419Z,6.55
2019-03-20T06:24:37.726Z,6.50
2019-03-20T06:27:42.259Z,6.61
2019-03-20T06:30:47.827Z,6.67
2019-03-20T06:33:52.225Z,6.68
2019-03-20T06:36:56.503Z,6.79
2019-03-20T06:40:00.796Z,6.70
2019-03-20T06:43:06.855Z,6.76
2019-03-20T06:46:11.171Z,6.93
2019-03-20T06:49:15.606Z,7.01
2019-03-20T06:52:20.033Z,7.07
2019-03-20T06:55:24.339Z,7.22
2019-03-20T06:58:28.823Z,7.30
2019-03-20T07:01:32.893Z,7.40
2019-03-20T07:05:32.815Z,7.40
2019-03-20T07:08:46.162Z,7.30
2019-03-20T07:11:50.453Z,7.39
2019-03-20T07:14:56.581Z,7.31
2019-03-20T07:18:00.939Z,7.49
2019-03-20T07:21:07.408Z,7.51
2019-03-20T07:24:11.711Z,7.62
2019-03-20T07:27:15.980Z,7.55
2019-03-20T07:30:21.778Z,7.70
2019-03-20T07:33:26.110Z,7.70
2019-03-20T07:36:31.678Z,7.68
2019-03-20T07:39:35.966Z,7.53
2019-03-20T07:42:40.402Z,7.62
2019-03-20T07:45:44.690Z,7.68
2019-03-20T07:48:49.086Z,7.62
2019-03-20T07:51:53.375Z,7.79
2019-03-20T07:54:58.126Z,7.74
2019-03-20T07:58:02.425Z,7.87
2019-03-20T08:01:06.746Z,7.82
2019-03-20T08:04:11.048Z,7.81
2019-03-20T08:07:15.516Z,7.82
2019-03-20T08:10:19.834Z,7.77
2019-03-20T08:13:24.116Z,7.64
2019-03-20T08:16:28.414Z,7.74
2019-03-20T08:19:32.763Z,7.62
2019-03-20T08:22:37.089Z,7.65
2019-03-20T08:25:41.383Z,7.76
2019-03-20T08:28:45.677Z,7.72
2019-03-20T08:31:51.614Z,7.66
2019-03-20T08:34:58.243Z,7.70
2019-03-20T08:38:02.560Z,7.56
2019-03-20T08:41:07.057Z,7.60
2019-03-20T08:44:11.441Z,7.57
2019-03-20T08:47:15.728Z,7.59
2019-03-20T08:50:20.608Z,7.63
2019-03-20T08:53:24.954Z,7.70
2019-03-20T08:56:29.331Z,7.68
2019-03-20T08:59:33.755Z,7.71
2019-03-20T09:02:39.563Z,7.75
2019-03-20T09:05:43.878Z,7.74
2019-03-20T09:08:48.269Z,7.78
2019-03-20T09:11:52.552Z,7.80
2019-03-20T09:14:56.862Z,7.85
2019-03-20T09:18:01.169Z,7.86
2019-03-20T09:21:05.501Z,7.88
2019-03-20T09:24:09.798Z,8.08
2019-03-20T09:27:14.084Z,8.02
2019-03-20T09:30:19.936Z,8.13
2019-03-20T09:33:24.284Z,8.15
2019-03-20T09:36:28.577Z,8.10
2019-03-20T09:39:32.902Z,8.21
2019-03-20T09:42:37.287Z,8.24
2019-03-20T09:45:41.569Z,8.21
2019-03-20T09:48:45.875Z,8.19
2019-03-20T09:51:50.158Z,8.37
2019-03-20T09:54:54.447Z,8.35
2019-03-20T09:57:59.036Z,8.36
2019-03-20T10:01:03.445Z,8.38
2019-03-20T10:04:07.728Z,8.45
2019-03-20T10:07:12.012Z,8.47
2019-03-20T10:10:18.380Z,8.52
2019-03-20T10:13:22.700Z,8.45
2019-03-20T10:16:28.454Z,8.54
2019-03-20T10:19:32.747Z,8.43
2019-03-20T10:22:38.954Z,8.41
2019-03-20T10:25:44.831Z,8.46
2019-03-20T10:28:49.125Z,8.47
2019-03-20T10:31:55.186Z,8.49
2019-03-20T10:35:04.304Z,8.51
2019-03-20T10:38:08.608Z,8.52
2019-03-20T10:41:12.894Z,8.56
2019-03-20T10:44:18.432Z,8.59
2019-03-20T10:47:26.912Z,8.61
2019-03-20T10:50:31.311Z,8.60
2019-03-20T10:53:36.898Z,8.66
2019-03-20T10:56:42.349Z,8.71
2019-03-20T10:59:47.655Z,8.78
2019-03-20T11:02:51.970Z,8.94
2019-03-20T11:05:56.273Z,9.10
2019-03-20T11:09:00.783Z,9.23
2019-03-20T11:12:05.153Z,9.29
2019-03-20T11:15:14.381Z,9.54
2019-03-20T11:18:18.658Z,9.59
2019-03-20T11:21:23.069Z,9.60
2019-03-20T11:24:27.392Z,9.61
2019-03-20T11:27:33.383Z,9.60
2019-03-20T11:30:37.887Z,9.65
2019-03-20T11:33:42.177Z,9.66
2019-03-20T11:36:46.507Z,9.66
2019-03-20T11:39:52.662Z,9.76
2019-03-20T11:42:56.873Z,9.77
2019-03-20T11:46:01.399Z,9.79
2019-03-20T11:49:05.788Z,9.68
2019-03-20T11:52:10.092Z,9.63
2019-03-20T11:55:14.798Z,9.51
2019-03-20T11:58:19.169Z,9.37
2019-03-20T12:01:23.524Z,9.33
2019-03-20T12:04:30.118Z,9.33
2019-03-20T12:07:34.407Z,9.35
2019-03-20T12:10:40.233Z,9.35
2019-03-20T12:13:44.519Z,9.51
2019-03-20T12:16:48.833Z,9.51
2019-03-20T12:19:54.929Z,9.53
2019-03-20T12:23:01.056Z,9.59
2019-03-20T12:26:05.901Z,9.57
2019-03-20T12:29:10.378Z,9.54
2019-03-20T12:32:14.685Z,9.67
2019-03-20T12:35:19.023Z,9.65
2019-03-20T12:38:23.335Z,9.68
2019-03-20T12:41:27.638Z,9.61
2019-03-20T12:44:31.939Z,9.65
2019-03-20T12:47:37.783Z,9.70
2019-03-20T12:50:42.096Z,9.77
2019-03-20T12:53:46.476Z,9.76
2019-03-20T12:56:50.756Z,9.85
2019-03-20T12:59:56.187Z,9.98
2019-03-20T13:03:00.486Z,10.04
2019-03-20T13:06:04.782Z,10.09
2019-03-20T13:09:10.173Z,10.06
2019-03-20T13:12:14.482Z,9.95
2019-03-20T13:15:20.663Z,9.85
2019-03-20T13:18:27.845Z,9.72
2019-03-20T13:21:32.137Z,9.76
2019-03-20T13:24:36.463Z,9.87
2019-03-20T13:27:40.751Z,9.80
2019-03-20T13:30:49.158Z,9.70
2019-03-20T13:33:53.495Z,9.66
2019-03-20T13:36:57.917Z,9.53
2019-03-20T13:40:13.646Z,9.54
2019-03-20T13:43:09.799Z,9.50
2019-03-20T13:46:14.185Z,9.42
2019-03-20T13:49:19.991Z,9.39
2019-03-20T13:52:24.316Z,9.43
2019-03-20T13:55:28.663Z,9.39
2019-03-20T13:58:32.961Z,9.43
2019-03-20T14:01:37.276Z,9.45
2019-03-20T14:04:43.845Z,9.49
2019-03-20T14:07:48.331Z,9.52
2019-03-20T14:10:52.635Z,9.52
2019-03-20T14:13:56.919Z,9.58
2019-03-20T14:17:01.225Z,9.58
2019-03-20T14:20:06.501Z,9.64
2019-03-20T14:23:10.793Z,9.70
2019-03-20T14:26:15.067Z,9.66
2019-03-20T14:29:20.380Z,9.62
2019-03-20T14:32:24.699Z,9.59
2019-03-20T14:35:29.011Z,9.56
2019-03-20T14:38:33.316Z,9.61
2019-03-20T14:41:37.621Z,9.56
2019-03-20T14:44:43.629Z,9.48
2019-03-20T14:47:48.391Z,9.54
2019-03-20T14:50:52.785Z,9.55
2019-03-20T14:53:57.076Z,9.59
2019-03-20T14:57:01.515Z,9.65
2019-03-20T15:00:06.876Z,9.54
2019-03-20T15:03:14.952Z,9.65
2019-03-20T15:06:19.311Z,9.53
2019-03-20T15:09:23.613Z,9.45
2019-03-20T15:12:27.946Z,9.38
2019-03-20T15:15:38.028Z,9.31
2019-03-20T15:18:42.404Z,9.31
2019-03-20T15:21:47.817Z,9.30
2019-03-20T15:24:52.120Z,9.22
2019-03-20T15:27:56.521Z,9.23
2019-03-20T15:31:01.052Z,9.28
2019-03-20T15:34:05.482Z,9.25
2019-03-20T15:37:09.795Z,9.29
2019-03-20T15:40:15.667Z,9.22
2019-03-20T15:43:20.295Z,9.15
2019-03-20T15:46:24.718Z,9.18
2019-03-20T15:49:29.023Z,9.06
2019-03-20T15:52:33.475Z,9.03
2019-03-20T15:55:37.942Z,8.96
2019-03-20T15:58:44.044Z,9.01
2019-03-20T16:01:48.338Z,8.99
2019-03-20T16:04:52.710Z,8.91
2019-03-20T16:07:57.019Z,8.92
2019-03-20T16:11:06.908Z,8.91
2019-03-20T16:14:09.374Z,8.87
2019-03-20T16:17:15.130Z,8.88
2019-03-20T16:20:19.559Z,8.86
2019-03-20T16:23:25.670Z,8.85
2019-03-20T16:26:30.078Z,8.86
2019-03-20T16:29:34.357Z,8.82
2019-03-20T16:32:38.668Z,8.82
2019-03-20T16:35:42.997Z,8.80
2019-03-20T16:38:48.391Z,8.78
2019-03-20T16:41:52.691Z,8.81
2019-03-20T16:44:58.590Z,8.71
2019-03-20T16:48:02.900Z,8.75
2019-03-20T16:51:08.635Z,8.77
2019-03-20T16:54:12.995Z,8.69
2019-03-20T16:57:18.352Z,8.64
2019-03-20T17:00:24.279Z,8.66
2019-03-20T17:03:28.560Z,8.72
2019-03-20T17:06:34.655Z,8.72
2019-03-20T17:09:38.945Z,8.70
2019-03-20T17:12:45.536Z,8.68
2019-03-20T17:15:49.832Z,8.60
2019-03-20T17:18:55.310Z,8.61
2019-03-20T17:21:59.605Z,8.58
2019-03-20T17:25:05.814Z,8.66
2019-03-20T17:28:13.018Z,8.68
2019-03-20T17:31:17.462Z,8.56
2019-03-20T17:34:24.647Z,8.54
2019-03-20T17:37:29.960Z,8.51
2019-03-20T17:40:34.274Z,8.54
2019-03-20T17:43:40.145Z,8.48
2019-03-20T17:46:44.455Z,8.45
2019-03-20T17:49:53.045Z,8.45
2019-03-20T17:52:58.561Z,8.42
2019-03-20T17:56:03.157Z,8.42
2019-03-20T17:59:07.565Z,8.44
2019-03-20T18:02:12.001Z,8.46
2019-03-20T18:05:16.319Z,8.44
2019-03-20T18:08:20.850Z,8.43
2019-03-20T18:11:25.160Z,8.43
2019-03-20T18:14:29.452Z,8.42
2019-03-20T18:17:33.958Z,8.40
2019-03-20T18:20:38.656Z,8.40
2019-03-20T18:23:43.078Z,8.39
2019-03-20T18:26:50.471Z,8.42
2019-03-20T18:29:56.664Z,8.50
2019-03-20T18:33:01.077Z,8.43
2019-03-20T18:36:05.387Z,8.46
2019-03-20T18:39:09.725Z,8.46
2019-03-20T18:42:14.352Z,8.50
2019-03-20T18:45:19.818Z,8.47
2019-03-20T18:48:24.217Z,8.45
2019-03-20T18:51:28.852Z,8.45
2019-03-20T18:54:33.254Z,8.43
2019-03-20T18:57:37.781Z,8.45
2019-03-20T19:00:43.394Z,8.46
2019-03-20T19:03:54.062Z,8.48
2019-03-20T19:06:58.570Z,8.49
2019-03-20T19:10:06.338Z,8.47
2019-03-20T19:13:10.815Z,8.49
2019-03-20T19:16:15.197Z,8.52
2019-03-20T19:19:19.675Z,8.51
2019-03-20T19:22:24.378Z,8.51
2019-03-20T19:25:28.735Z,8.55
2019-03-20T19:28:33.530Z,8.60
2019-03-20T19:31:40.742Z,8.60
2019-03-20T19:34:45.331Z,8.62
2019-03-20T19:37:49.875Z,8.57
2019-03-20T19:40:54.414Z,8.72
2019-03-20T19:44:02.377Z,8.63
2019-03-20T19:47:06.958Z,8.74
2019-03-20T19:50:15.743Z,8.70
2019-03-20T19:53:20.217Z,8.87
2019-03-20T19:56:24.931Z,8.82
2019-03-20T19:59:29.395Z,8.71
2019-03-20T20:02:34.520Z,8.77
2019-03-20T20:05:39.091Z,8.79
2019-03-20T20:08:43.605Z,8.63
2019-03-20T20:11:47.999Z,8.63
2019-03-20T20:14:53.755Z,8.53
2019-03-20T20:17:58.713Z,8.59
2019-03-20T20:21:03.159Z,8.43
2019-03-20T20:24:09.600Z,8.58
2019-03-20T20:27:14.054Z,8.47
2019-03-20T20:30:18.860Z,8.33
2019-03-20T20:33:23.303Z,8.35
2019-03-20T20:36:28.707Z,8.42
2019-03-20T20:39:34.891Z,8.36
2019-03-20T20:42:43.274Z,8.32
2019-03-20T20:45:45.881Z,8.36
2019-03-20T20:48:50.351Z,8.43
2019-03-20T20:51:54.836Z,8.31
2019-03-20T20:54:59.359Z,8.24
2019-03-20T20:58:05.547Z,8.26
2019-03-20T21:01:09.861Z,8.24
2019-03-20T21:04:14.214Z,8.36
2019-03-20T21:07:19.985Z,8.27
2019-03-20T21:10:24.346Z,8.21
2019-03-20T21:13:29.872Z,8.24
2019-03-20T21:16:34.774Z,8.19
2019-03-20T21:19:45.940Z,8.15
2019-03-20T21:23:17.420Z,8.15
2019-03-20T21:26:22.580Z,8.35
2019-03-20T21:30:08.994Z,8.12
2019-03-20T21:33:23.988Z,8.04
2019-03-20T21:37:13.792Z,8.01
2019-03-20T21:40:19.980Z,8.06
2019-03-20T21:43:50.959Z,8.15
2019-03-20T21:47:35.749Z,8.14
2019-03-20T21:51:15.035Z,8.10
2019-03-20T21:55:04.539Z,8.22
2019-03-20T21:58:22.224Z,8.14
2019-03-20T22:02:02.491Z,8.18
2019-03-20T22:05:07.784Z,8.26
2019-03-20T22:08:13.884Z,8.37
2019-03-20T22:12:00.681Z,8.48
2019-03-20T22:16:00.954Z,8.48
2019-03-20T22:19:37.028Z,8.45
2019-03-20T22:23:28.076Z,8.41
2019-03-20T22:27:12.767Z,8.30
2019-03-20T22:30:18.870Z,8.37
2019-03-20T22:33:58.942Z,8.36
2019-03-20T22:37:03.779Z,8.35
2019-03-20T22:40:53.731Z,8.36
2019-03-20T22:44:02.644Z,8.37
2019-03-20T22:48:02.450Z,8.37
2019-03-20T22:51:45.880Z,8.29
2019-03-20T22:55:16.374Z,8.17
2019-03-20T22:58:44.583Z,8.09
2019-03-20T23:02:22.858Z,8.10
2019-03-20T23:05:27.700Z,8.26
2019-03-20T23:08:32.570Z,8.21
2019-03-20T23:11:44.834Z,8.19
2019-03-20T23:14:49.974Z,8.37
2019-03-20T23:17:56.546Z,8.26
2019-03-20T23:21:05.506Z,8.38
2019-03-20T23:24:10.401Z,8.32
2019-03-20T23:27:19.062Z,8.24
2019-03-20T23:30:25.592Z,8.26
2019-03-20T23:33:30.708Z,8.33
2019-03-20T23:36:35.566Z,8.41
2019-03-20T23:39:40.431Z,8.50
2019-03-20T23:42:46.342Z,8.59
2019-03-20T23:45:51.360Z,8.53
2019-03-20T23:48:59.931Z,8.46
2019-03-20T23:52:05.111Z,8.58
2019-03-20T23:55:11.687Z,8.47
2019-03-20T23:58:16.853Z,8.54
